createdAt,value
2022-11-07T00:00:23.166Z,75.88
2022-11-07T00:05:25.035Z,76.06
2022-11-07T00:10:26.969Z,75.93
2022-11-07T00:15:29.322Z,76.01
2022-11-07T00:20:31.273Z,75.88
2022-11-07T00:25:33.177Z,76.01
2022-11-07T00:30:35.307Z,75.86
2022-11-07T00:35:41.866Z,75.97
2022-11-07T00:40:44.153Z,75.92
2022-11-07T00:45:46.145Z,75.95
2022-11-07T00:50:48.267Z,75.86
2022-11-07T00:55:50.106Z,75.92
2022-11-07T01:00:51.934Z,76.12
2022-11-07T01:06:02.532Z,76.08
2022-11-07T01:11:07.237Z,76.07
2022-11-07T01:16:12.127Z,75.93
2022-11-07T01:21:16.690Z,75.95
2022-11-07T01:26:18.945Z,76.17
2022-11-07T01:31:21.460Z,76.21
2022-11-07T01:36:23.504Z,76.09
2022-11-07T01:41:28.982Z,76.07
2022-11-07T01:46:45.140Z,76.05
2022-11-07T01:52:04.261Z,76.23
2022-11-07T01:57:16.023Z,76.28
2022-11-07T02:02:18.257Z,76.38
2022-11-07T02:07:23.481Z,76.15
2022-11-07T02:12:27.358Z,76.19
2022-11-07T02:17:29.759Z,76.19
2022-11-07T02:22:50.672Z,76.08
2022-11-07T02:28:00.002Z,75.85
2022-11-07T02:33:03.039Z,76.12
2022-11-07T02:38:11.255Z,76.08
2022-11-07T02:43:15.221Z,75.95
2022-11-07T02:48:17.973Z,76.01
2022-11-07T02:53:20.004Z,76.08
2022-11-07T02:58:21.771Z,75.99
2022-11-07T03:03:27.267Z,75.78
2022-11-07T03:08:29.080Z,75.66
2022-11-07T03:13:30.995Z,75.76
2022-11-07T03:18:34.132Z,75.72
2022-11-07T03:23:36.842Z,75.61
2022-11-07T03:28:38.713Z,75.69
2022-11-07T03:33:40.516Z,75.67
2022-11-07T03:38:42.345Z,75.62
2022-11-07T03:43:47.694Z,75.58
2022-11-07T03:48:49.667Z,75.79
2022-11-07T03:53:51.536Z,75.62
2022-11-07T03:58:53.337Z,75.42
2022-11-07T04:03:56.318Z,75.62
2022-11-07T04:09:02.159Z,75.73
2022-11-07T04:14:22.353Z,75.50
2022-11-07T04:19:26.660Z,75.70
2022-11-07T04:24:29.632Z,75.80
2022-11-07T04:29:31.438Z,75.61
2022-11-07T04:34:33.301Z,75.62
2022-11-07T04:39:35.089Z,75.51
2022-11-07T04:44:37.036Z,75.77
2022-11-07T04:49:38.872Z,76.18
2022-11-07T04:54:49.742Z,76.02
2022-11-07T04:59:51.591Z,75.99
2022-11-07T05:04:53.537Z,76.01
2022-11-07T05:09:55.594Z,76.32
2022-11-07T05:14:58.580Z,76.43
2022-11-07T05:20:00.400Z,76.49
2022-11-07T05:25:02.191Z,76.23
2022-11-07T05:30:05.870Z,76.44
2022-11-07T05:35:08.258Z,76.52
2022-11-07T05:40:10.894Z,76.67
2022-11-07T05:45:12.711Z,76.49
2022-11-07T05:50:25.024Z,76.49
2022-11-07T05:55:27.060Z,76.52
2022-11-07T06:00:28.924Z,76.59
2022-11-07T06:05:31.060Z,76.55
2022-11-07T06:10:32.906Z,76.70
2022-11-07T06:15:36.380Z,76.65
2022-11-07T06:20:38.294Z,76.75
2022-11-07T06:25:40.286Z,76.91
2022-11-07T06:30:42.823Z,76.99
2022-11-07T06:35:45.766Z,76.80
2022-11-07T06:40:47.871Z,76.69
2022-11-07T06:45:49.797Z,76.73
2022-11-07T06:50:59.595Z,76.52
2022-11-07T06:56:02.896Z,76.75
2022-11-07T07:01:13.698Z,76.86
2022-11-07T07:06:17.034Z,76.96
2022-11-07T07:11:19.123Z,76.89
2022-11-07T07:16:20.915Z,76.98
2022-11-07T07:21:22.782Z,76.94
2022-11-07T07:26:24.555Z,76.93
2022-11-07T07:31:31.045Z,77.15
2022-11-07T07:36:33.254Z,77.00
2022-11-07T07:41:39.920Z,77.32
2022-11-07T07:46:42.204Z,77.58
2022-11-07T07:51:44.051Z,77.73
2022-11-07T07:56:45.844Z,77.83
2022-11-07T08:01:52.204Z,77.81
2022-11-07T08:06:57.418Z,77.89
2022-11-07T08:11:59.296Z,78.01
2022-11-07T08:17:01.460Z,78.07
2022-11-07T08:22:03.493Z,78.16
2022-11-07T08:27:05.519Z,78.12
2022-11-07T08:32:10.111Z,78.32
2022-11-07T08:37:11.935Z,78.38
2022-11-07T08:42:13.989Z,78.51
2022-11-07T08:47:16.057Z,78.59
2022-11-07T08:52:18.104Z,78.44
2022-11-07T08:57:20.019Z,78.53
2022-11-07T09:07:44.062Z,78.42
2022-11-07T09:12:50.361Z,78.33
2022-11-07T09:17:52.389Z,78.33
2022-11-07T09:23:04.212Z,78.26
2022-11-07T09:28:06.084Z,78.21
2022-11-07T09:33:14.400Z,78.16
2022-11-07T09:38:18.636Z,78.26
2022-11-07T09:44:05.125Z,78.00
2022-11-07T09:49:29.043Z,77.99
2022-11-07T09:54:38.085Z,77.79
2022-11-07T09:59:46.270Z,77.46
2022-11-07T10:04:56.943Z,77.15
2022-11-07T10:10:19.316Z,76.80
2022-11-07T10:16:08.292Z,76.73
2022-11-07T10:26:37.433Z,75.81
2022-11-07T10:31:44.524Z,75.64
2022-11-07T10:36:46.540Z,75.57
2022-11-07T10:42:09.668Z,74.77
2022-11-07T10:47:26.688Z,73.88
2022-11-07T10:52:29.847Z,73.25
2022-11-07T10:57:34.515Z,72.63
2022-11-07T11:02:48.356Z,72.10
2022-11-07T11:07:51.054Z,72.19
2022-11-07T11:12:53.389Z,72.11
2022-11-07T11:18:21.633Z,71.67
2022-11-07T11:23:26.939Z,71.71
2022-11-07T11:28:34.898Z,71.86
2022-11-07T11:33:45.344Z,71.62
2022-11-07T11:38:54.964Z,71.28
2022-11-07T11:44:37.295Z,70.63
2022-11-07T11:49:55.065Z,70.10
2022-11-07T11:55:00.525Z,70.01
2022-11-07T12:00:11.734Z,70.19
2022-11-07T12:05:32.181Z,70.32
2022-11-07T12:11:00.055Z,70.08
2022-11-07T12:16:44.030Z,70.20
2022-11-07T12:21:48.537Z,70.31
2022-11-07T12:27:14.839Z,70.12
2022-11-07T12:32:38.252Z,70.09
2022-11-07T12:38:17.600Z,70.37
2022-11-07T12:43:31.183Z,70.34
2022-11-07T12:49:11.435Z,70.37
2022-11-07T12:54:19.008Z,70.42
2022-11-07T12:59:25.872Z,70.45
2022-11-07T13:04:42.366Z,70.44
2022-11-07T13:09:56.705Z,70.27
2022-11-07T13:14:58.991Z,70.21
2022-11-07T13:20:39.151Z,70.23
2022-11-07T13:25:41.282Z,69.87
2022-11-07T13:30:55.945Z,69.95
2022-11-07T13:36:12.004Z,69.96
2022-11-07T13:41:15.960Z,70.06
2022-11-07T13:46:32.140Z,69.70
2022-11-07T13:51:38.957Z,69.72
2022-11-07T13:56:51.333Z,69.77
2022-11-07T14:01:57.325Z,69.74
2022-11-07T14:07:03.162Z,69.83
2022-11-07T14:12:05.295Z,69.73
2022-11-07T14:17:15.723Z,69.39
2022-11-07T14:22:26.308Z,69.51
2022-11-07T14:27:28.103Z,69.61
2022-11-07T14:32:32.157Z,69.68
2022-11-07T14:37:34.989Z,69.74
2022-11-07T14:42:38.355Z,69.99
2022-11-07T14:47:40.574Z,70.21
2022-11-07T14:52:48.108Z,70.36
2022-11-07T14:57:51.065Z,70.42
2022-11-07T15:02:55.653Z,70.36
2022-11-07T15:07:59.710Z,70.48
2022-11-07T15:13:04.753Z,70.44
2022-11-07T15:18:07.305Z,70.38
2022-11-07T15:23:12.263Z,70.31
2022-11-07T15:28:26.788Z,70.06
2022-11-07T15:33:33.058Z,70.26
2022-11-07T15:38:34.891Z,70.33
2022-11-07T15:43:36.763Z,70.38
2022-11-07T15:48:41.319Z,70.53
2022-11-07T15:53:43.419Z,70.52
2022-11-07T15:58:45.395Z,70.67
2022-11-07T16:03:47.266Z,70.67
2022-11-07T16:08:49.108Z,70.80
2022-11-07T16:13:51.150Z,70.89
2022-11-07T16:18:54.062Z,70.96
2022-11-07T16:23:55.912Z,71.08
2022-11-07T16:28:58.205Z,71.21
2022-11-07T16:34:00.165Z,71.50
2022-11-07T16:39:05.467Z,71.49
2022-11-07T16:44:07.461Z,71.68
2022-11-07T16:49:15.875Z,71.52
2022-11-07T16:54:18.013Z,71.66
2022-11-07T16:59:22.809Z,71.66
2022-11-07T17:04:24.616Z,71.73
2022-11-07T17:09:28.091Z,71.84
2022-11-07T17:14:31.229Z,71.79
2022-11-07T17:19:33.817Z,71.83
2022-11-07T17:24:35.689Z,71.74
2022-11-07T17:29:37.549Z,71.86
2022-11-07T17:34:39.446Z,71.92
2022-11-07T17:39:41.306Z,71.99
2022-11-07T17:44:43.203Z,72.08
2022-11-07T17:49:46.401Z,71.93
2022-11-07T17:54:48.587Z,71.92
2022-11-07T17:59:50.462Z,72.03
2022-11-07T18:04:52.319Z,71.97
2022-11-07T18:09:54.963Z,71.96
2022-11-07T18:14:57.153Z,72.00
2022-11-07T18:19:59.022Z,71.94
2022-11-07T18:25:00.918Z,71.92
2022-11-07T18:30:04.727Z,72.01
2022-11-07T18:35:06.704Z,72.00
2022-11-07T18:40:09.458Z,71.97
2022-11-07T18:45:12.920Z,72.00
2022-11-07T18:50:14.884Z,72.07
2022-11-07T18:55:16.735Z,71.92
2022-11-07T19:00:18.732Z,71.90
2022-11-07T19:05:20.705Z,71.92
2022-11-07T19:10:22.823Z,72.00
2022-11-07T19:15:27.164Z,72.04
2022-11-07T19:20:29.041Z,72.08
2022-11-07T19:25:30.937Z,72.13
2022-11-07T19:30:33.984Z,72.32
2022-11-07T19:35:38.231Z,72.27
2022-11-07T19:40:41.524Z,72.33
2022-11-07T19:45:44.125Z,72.34
2022-11-07T19:50:48.437Z,72.37
2022-11-07T19:55:50.363Z,72.46
2022-11-07T20:00:52.492Z,72.49
2022-11-07T20:05:54.618Z,72.50
2022-11-07T20:10:56.440Z,72.56
2022-11-07T20:15:59.303Z,72.52
2022-11-07T20:21:04.244Z,72.62
2022-11-07T20:26:33.074Z,72.69
2022-11-07T20:31:36.926Z,72.60
2022-11-07T20:36:39.236Z,72.47
2022-11-07T20:41:42.643Z,72.63
2022-11-07T20:46:45.975Z,72.66
2022-11-07T20:51:47.825Z,72.48
2022-11-07T20:56:49.904Z,72.58
2022-11-07T21:01:52.915Z,72.59
2022-11-07T21:06:54.941Z,72.52
2022-11-07T21:11:56.900Z,72.54
2022-11-07T21:16:58.895Z,72.51
2022-11-07T21:22:00.686Z,72.43
2022-11-07T21:27:02.750Z,72.38
2022-11-07T21:32:07.448Z,72.49
2022-11-07T21:37:09.848Z,72.45
2022-11-07T21:42:13.128Z,72.21
2022-11-07T21:47:15.110Z,72.36
2022-11-07T21:52:17.418Z,72.51
2022-11-07T21:57:19.208Z,72.49
2022-11-07T22:02:21.155Z,72.64
2022-11-07T22:07:23.411Z,72.48
2022-11-07T22:12:25.232Z,72.63
2022-11-07T22:17:27.149Z,72.72
2022-11-07T22:22:31.366Z,72.58
2022-11-07T22:27:33.162Z,72.72
2022-11-07T22:32:34.937Z,72.75
2022-11-07T22:37:36.914Z,72.75
2022-11-07T22:42:38.725Z,72.78
2022-11-07T22:47:40.762Z,72.82
2022-11-07T22:52:45.547Z,72.89
2022-11-07T22:57:47.371Z,72.79
2022-11-07T23:02:49.241Z,73.02
2022-11-07T23:07:52.916Z,73.14
2022-11-07T23:12:54.647Z,73.13
2022-11-07T23:17:56.400Z,73.21
2022-11-07T23:22:58.347Z,73.19
2022-11-07T23:28:00.135Z,73.15
2022-11-07T23:33:01.853Z,73.26
2022-11-07T23:38:04.097Z,73.25
2022-11-07T23:43:06.006Z,73.44
2022-11-07T23:48:31.868Z,73.48
2022-11-07T23:53:53.556Z,73.35
2022-11-07T23:59:14.503Z,73.49
